Time;durP1;ratioP1;P1;durP2;ratioP2;P2;SDS_P1;SDS_P2;PMS_P1;PMS_P2;Temp;Humidity;BMP_temperature;BMP_pressure;BME280_temperature;BME280_humidity;BME280_pressure;Samples;Min_cycle;Max_cycle;Signal;HPM_P1;HPM_P2
2022/03/28 03:38:36;;;;;;;15.35;7.13;;;;;;;2.69;95.10;99550.28;5309267;23;20051;-70
2022/03/28 03:44:23;;;;;;;15.73;7.30;;;;;;;2.55;98.25;99549.66;4685010;30;20099;-75
2022/03/28 03:54:09;;;;;;;14.10;7.30;;;;;;;2.47;100.00;99549.50;4738403;30;20113;-68
2022/03/28 03:59:56;;;;;;;12.70;6.93;;;;;;;2.18;100.00;99530.66;4751757;30;20047;-69
2022/03/28 04:59:56;;;;;;;15.45;7.13;;;;;;;2.19;99.68;99540.34;5452924;23;20047;-71
2022/03/28 09:38:08;;;;;;;18.05;10.85;;;;;;;28.94;20.08;99385.84;5078342;27;22285;-72
2022/03/28 09:40:33;;;;;;;17.05;10.95;;;;;;;28.86;20.87;99381.00;5095680;28;20032;-72
2022/03/28 09:43:01;;;;;;;19.00;10.93;;;;;;;30.07;19.03;99376.53;5075066;27;20124;-81
2022/03/28 09:45:37;;;;;;;18.63;11.35;;;;;;;30.18;18.62;99371.50;5077968;28;20039;-74
2022/03/28 09:48:09;;;;;;;25.13;11.70;;;;;;;29.26;18.88;99357.84;5070540;28;20035;-75
2022/03/28 09:50:40;;;;;;;20.55;10.85;;;;;;;27.88;21.04;99351.41;5070936;28;20024;-76
2022/03/28 09:53:19;;;;;;;17.17;10.80;;;;;;;27.99;20.55;99343.69;5072845;28;20063;-77
2022/03/28 09:56:11;;;;;;;18.42;11.02;;;;;;;30.16;18.72;99359.84;5073498;28;20807;-76
2022/03/28 09:58:56;;;;;;;21.20;11.43;;;;;;;31.13;18.07;99348.75;5078810;28;20086;-76
2022/03/28 10:01:35;;;;;;;18.70;11.45;;;;;;;32.21;16.46;99334.03;5079415;28;20024;-76
2022/03/28 10:04:08;;;;;;;17.70;10.77;;;;;;;32.96;15.49;99328.75;5082479;28;20029;-77
2022/03/28 10:06:37;;;;;;;15.25;9.68;;;;;;;33.25;14.91;99330.72;5083263;28;20055;-77
2022/03/28 10:09:04;;;;;;;15.57;10.13;;;;;;;33.67;14.30;99332.69;5082525;28;20067;-77
2022/03/28 10:11:30;;;;;;;16.75;10.32;;;;;;;30.67;16.27;99324.94;5086275;28;20183;-77
2022/03/28 10:13:56;;;;;;;13.82;9.43;;;;;;;30.92;16.46;99328.97;5083648;28;20055;-77
2022/03/28 10:16:22;;;;;;;15.13;9.52;;;;;;;32.56;15.38;99326.31;5091001;28;20032;-79
2022/03/28 10:18:50;;;;;;;19.75;9.93;;;;;;;31.13;16.30;99326.38;5084460;28;20046;-79
2022/03/28 10:21:23;;;;;;;17.88;10.55;;;;;;;33.09;15.09;99316.50;5090138;28;20515;-78
2022/03/28 10:24:06;;;;;;;16.35;10.90;;;;;;;32.45;15.44;99313.84;5085753;28;20036;-77
2022/03/28 10:26:38;;;;;;;22.75;10.57;;;;;;;31.52;16.18;99310.63;5078274;28;20021;-77
2022/03/28 10:29:09;;;;;;;18.17;10.00;;;;;;;32.75;15.37;99306.31;5083792;28;20036;-78
2022/03/28 10:31:55;;;;;;;18.38;10.90;;;;;;;31.92;15.46;99301.16;5086864;28;20043;-78
2022/03/28 10:34:49;;;;;;;19.63;11.10;;;;;;;31.00;16.75;99310.59;5085523;28;20624;-79
2022/03/28 10:37:30;;;;;;;17.92;11.45;;;;;;;31.07;16.10;99302.50;5077184;28;20031;-73
2022/03/28 10:40:23;;;;;;;20.85;11.20;;;;;;;30.62;16.37;99296.34;5078881;28;20417;-74
2022/03/28 10:43:02;;;;;;;19.33;9.90;;;;;;;32.62;15.84;99284.94;5074616;28;20024;-72
2022/03/28 10:45:49;;;;;;;17.55;10.70;;;;;;;31.00;16.93;99283.44;5081344;28;20027;-76
2022/03/28 10:48:16;;;;;;;22.67;11.40;;;;;;;30.83;17.91;99289.00;5065905;28;20042;-71
2022/03/28 10:50:53;;;;;;;17.95;10.32;;;;;;;32.64;16.20;99285.41;5067371;28;20028;-70
2022/03/28 10:53:29;;;;;;;16.90;10.65;;;;;;;32.44;16.97;99267.41;5065984;28;20024;-72
2022/03/28 10:55:59;;;;;;;19.52;10.80;;;;;;;32.40;17.09;99266.41;5064626;28;20043;-71
2022/03/28 10:58:28;;;;;;;15.13;10.07;;;;;;;34.17;15.15;99262.31;5066446;28;20033;-70
2022/03/28 11:01:11;;;;;;;17.83;10.32;;;;;;;33.48;15.40;99251.78;5065469;28;20037;-70
2022/03/28 11:03:46;;;;;;;16.83;10.68;;;;;;;29.56;17.30;99263.47;5068035;28;22552;-70
2022/03/28 11:06:14;;;;;;;16.60;11.02;;;;;;;31.47;16.22;99248.41;5067981;28;20039;-71
2022/03/28 11:08:41;;;;;;;;;;;;;;;32.22;16.24;99246.06;5066759;28;20029;-73
2022/03/28 11:11:22;;;;;;;18.45;10.35;;;;;;;32.89;15.95;99233.16;5068973;28;19918;-77
2022/03/28 11:14:09;;;;;;;17.42;10.57;;;;;;;32.67;15.10;99237.94;5076871;28;20036;-75
2022/03/28 11:16:43;;;;;;;19.08;10.20;;;;;;;33.80;15.26;99236.97;5066403;28;20036;-76
2022/03/28 11:19:22;;;;;;;19.17;10.82;;;;;;;34.22;14.10;99234.00;5065184;28;20036;-77
2022/03/28 11:22:03;;;;;;;16.15;9.88;;;;;;;33.86;13.89;99219.91;5077468;28;20082;-75
2022/03/28 11:24:43;;;;;;;16.90;10.27;;;;;;;34.08;13.66;99221.47;5067437;28;20481;-74
2022/03/28 11:27:09;;;;;;;17.17;10.43;;;;;;;35.10;13.79;99223.09;5060869;28;20028;-74
2022/03/28 11:29:35;;;;;;;13.77;9.60;;;;;;;35.85;13.10;99215.13;5068075;28;20370;-75
2022/03/28 11:32:12;;;;;;;19.80;10.10;;;;;;;34.97;14.45;99218.66;5061502;28;20057;-76
2022/03/28 11:34:38;;;;;;;14.70;9.83;;;;;;;34.69;14.51;99204.59;5052104;28;20082;-76
2022/03/28 11:37:05;;;;;;;20.48;11.27;;;;;;;34.71;14.11;99215.47;5058288;28;20029;-75
2022/03/28 11:39:49;;;;;;;20.33;11.13;;;;;;;34.02;15.09;99202.00;5056599;28;20025;-74
2022/03/28 11:42:19;;;;;;;15.88;10.43;;;;;;;33.20;14.71;99198.28;5056307;28;20115;-75
2022/03/28 11:44:44;;;;;;;20.55;11.02;;;;;;;33.20;15.29;99179.50;5056489;28;20116;-74
2022/03/28 11:47:10;;;;;;;18.02;10.88;;;;;;;34.29;14.57;99198.88;5054794;28;20124;-73
2022/03/28 11:49:50;;;;;;;15.30;10.35;;;;;;;33.73;15.24;99183.38;5059142;28;20388;-74
2022/03/28 11:52:19;;;;;;;23.38;10.95;;;;;;;34.63;14.67;99177.88;5059498;28;20029;-74
2022/03/28 11:54:44;;;;;;;22.10;11.05;;;;;;;33.57;14.42;99171.22;5060559;28;20032;-73
2022/03/28 12:00:14;;;;;;;15.25;10.73;;;;;;;33.17;16.45;99149.34;5059729;28;20595;-74
2022/03/28 12:02:54;;;;;;;19.13;10.88;;;;;;;33.73;16.39;99154.50;5064182;28;20093;-72
2022/03/28 12:05:31;;;;;;;22.25;11.05;;;;;;;34.10;16.31;99146.94;5056578;28;20479;-73
2022/03/28 12:07:57;;;;;;;17.42;11.23;;;;;;;33.94;15.51;99143.16;5058004;28;20060;-73
2022/03/28 12:10:25;;;;;;;21.27;12.38;;;;;;;32.99;15.75;99148.66;5060722;28;20393;-71
2022/03/28 12:12:51;;;;;;;21.15;12.40;;;;;;;32.84;15.84;99138.09;5059867;28;20066;-72
2022/03/28 12:15:25;;;;;;;18.15;11.13;;;;;;;34.15;15.88;99145.88;5060955;28;20024;-72
2022/03/28 12:17:54;;;;;;;16.67;11.55;;;;;;;33.19;15.62;99130.16;5060593;28;20603;-72
2022/03/28 12:20:25;;;;;;;21.88;12.77;;;;;;;32.92;16.65;99132.38;5067228;28;20040;-73
2022/03/28 12:22:51;;;;;;;17.40;11.45;;;;;;;32.54;16.63;99132.56;5067530;28;20029;-73
2022/03/28 12:25:23;;;;;;;17.52;11.38;;;;;;;33.24;15.85;99121.53;5067388;28;20042;-73
2022/03/28 12:27:57;;;;;;;19.60;10.95;;;;;;;33.08;16.19;99109.34;5067355;28;20058;-73
2022/03/28 12:30:26;;;;;;;19.70;11.13;;;;;;;32.14;17.35;99109.78;5068622;28;20033;-73
2022/03/28 12:32:52;;;;;;;18.67;11.23;;;;;;;32.61;17.80;99093.59;5066103;28;20035;-73
2022/03/28 12:35:21;;;;;;;18.60;11.40;;;;;;;33.13;16.71;99106.34;5065705;28;20110;-73
2022/03/28 12:37:55;;;;;;;;;;;;;;;33.87;16.09;99098.03;5065584;28;20043;-73
2022/03/28 12:40:28;;;;;;;19.35;11.52;;;;;;;32.67;17.31;99102.63;5063668;28;19963;-73
2022/03/28 12:42:54;;;;;;;18.50;11.43;;;;;;;33.44;16.28;99090.97;5064037;28;20401;-72
2022/03/28 12:45:24;;;;;;;20.83;11.60;;;;;;;32.90;16.91;99089.88;5065888;28;20101;-72
2022/03/28 12:48:02;;;;;;;20.25;10.75;;;;;;;32.01;16.89;99080.88;5065597;28;20029;-72
2022/03/28 12:50:29;;;;;;;19.48;10.90;;;;;;;30.13;17.69;99073.06;5067407;28;20055;-72
2022/03/28 12:53:11;;;;;;;21.30;10.90;;;;;;;30.64;17.62;99065.84;5064916;28;20536;-74
2022/03/28 12:55:37;;;;;;;18.73;11.50;;;;;;;31.30;16.81;99073.13;5057560;28;20107;-74
2022/03/28 12:58:04;;;;;;;19.42;11.10;;;;;;;30.50;17.43;99068.81;5060366;28;20032;-74
2022/03/28 13:00:34;;;;;;;19.35;10.70;;;;;;;30.98;17.13;99058.59;5064939;28;20111;-74
2022/03/28 13:03:02;;;;;;;22.52;10.95;;;;;;;30.32;17.79;99050.44;5062101;28;20024;-75
2022/03/28 13:05:28;;;;;;;;;;;;;;;31.26;18.41;99044.16;5066109;28;20020;-75
2022/03/28 13:08:03;;;;;;;20.20;9.65;;;;;;;32.06;17.68;99039.50;5063959;28;19927;-74
2022/03/28 13:10:35;;;;;;;20.88;10.55;;;;;;;31.74;17.55;99032.63;5062210;28;20073;-74
2022/03/28 13:13:01;;;;;;;16.67;10.60;;;;;;;31.60;16.84;99032.88;5065083;28;20032;-74
2022/03/28 13:15:32;;;;;;;21.25;11.40;;;;;;;31.66;17.12;99037.09;5053748;28;20025;-74
2022/03/28 13:18:12;;;;;;;19.45;10.90;;;;;;;31.66;17.29;99025.09;5065833;28;20024;-74
2022/03/28 13:20:41;;;;;;;15.70;9.90;;;;;;;32.39;16.69;99019.16;5061159;28;20070;-73
2022/03/28 13:23:28;;;;;;;15.63;9.63;;;;;;;32.01;16.71;99020.09;5064382;28;20028;-72
2022/03/28 13:25:55;;;;;;;18.15;10.10;;;;;;;32.39;16.70;99007.13;5065668;28;20828;-72
2022/03/28 13:28:24;;;;;;;16.45;9.43;;;;;;;32.52;16.77;99017.25;5070193;28;20120;-72
2022/03/28 13:30:57;;;;;;;16.45;9.70;;;;;;;33.01;16.02;99008.16;5061764;28;20073;-72
2022/03/28 13:33:23;;;;;;;15.23;8.07;;;;;;;32.08;15.37;98994.38;5063424;28;20024;-74
2022/03/28 13:35:51;;;;;;;16.38;8.70;;;;;;;31.40;16.72;98984.13;5062297;28;20025;-73
2022/03/28 13:38:19;;;;;;;12.48;8.65;;;;;;;31.08;16.20;98970.78;5058275;28;20384;-73
2022/03/28 13:40:48;;;;;;;19.05;9.32;;;;;;;30.55;16.74;98970.91;5062727;28;20028;-73
2022/03/28 13:43:15;;;;;;;13.98;8.45;;;;;;;31.22;16.47;98974.97;5058130;28;20056;-72
2022/03/28 13:45:41;;;;;;;15.27;8.48;;;;;;;31.11;15.80;98984.88;5065042;28;20027;-74
2022/03/28 13:48:10;;;;;;;13.82;7.65;;;;;;;30.99;16.05;98973.59;5062317;28;20024;-73
2022/03/28 13:50:36;;;;;;;;;;;;;;;30.14;14.91;98963.88;5059500;28;20032;-72
2022/03/28 13:53:03;;;;;;;12.73;7.85;;;;;;;30.46;15.94;98960.91;5055654;28;19919;-72
2022/03/28 13:55:28;;;;;;;13.82;8.20;;;;;;;30.24;15.31;98959.97;5062335;28;20074;-73
2022/03/28 13:57:54;;;;;;;13.10;7.75;;;;;;;29.64;15.37;98967.16;5057979;28;20029;-72
2022/03/28 14:00:21;;;;;;;13.27;8.25;;;;;;;30.38;15.52;98958.97;5058953;28;20760;-73
2022/03/28 14:02:47;;;;;;;15.80;7.95;;;;;;;30.26;15.50;98957.66;5057652;28;20032;-73
2022/03/28 14:05:12;;;;;;;11.65;8.15;;;;;;;30.33;15.65;98957.16;5061224;28;20017;-73
2022/03/28 14:07:37;;;;;;;15.77;8.02;;;;;;;30.23;16.01;98927.59;5060080;28;20051;-73
2022/03/28 14:10:04;;;;;;;15.10;7.80;;;;;;;30.62;14.80;98939.69;5060928;28;20068;-73
2022/03/28 14:12:29;;;;;;;12.68;8.20;;;;;;;30.08;14.49;98922.53;5058453;28;20051;-72
2022/03/28 14:14:56;;;;;;;15.15;7.25;;;;;;;29.94;15.42;98939.44;5054363;28;20729;-73
2022/03/28 14:17:21;;;;;;;12.40;7.55;;;;;;;29.73;15.83;98936.47;5047612;28;20032;-71
2022/03/28 14:19:47;;;;;;;11.90;7.57;;;;;;;29.59;15.27;98928.22;5057339;28;20513;-70
2022/03/28 14:22:12;;;;;;;13.93;7.97;;;;;;;29.47;16.03;98931.69;5058088;28;20077;-71
2022/03/28 14:24:38;;;;;;;15.57;7.60;;;;;;;29.56;15.90;98928.06;5066495;28;20107;-71
2022/03/28 14:27:04;;;;;;;11.40;6.68;;;;;;;29.48;15.66;98921.34;5068684;28;20363;-71
2022/03/28 14:29:29;;;;;;;11.63;7.53;;;;;;;29.38;15.19;98925.25;5057817;28;20024;-71
2022/03/28 14:31:55;;;;;;;12.32;7.68;;;;;;;29.47;15.55;98923.31;5055611;28;20440;-70
2022/03/28 14:34:20;;;;;;;14.05;8.35;;;;;;;29.08;15.81;98901.06;5058277;28;20085;-70
2022/03/28 14:36:46;;;;;;;11.32;7.38;;;;;;;28.81;16.82;98909.31;5056607;28;21081;-71
2022/03/28 14:39:11;;;;;;;15.82;7.75;;;;;;;28.79;16.37;98925.53;5058363;28;20052;-70
2022/03/28 14:41:36;;;;;;;13.35;7.90;;;;;;;28.29;15.64;98919.34;5054600;28;20755;-71
2022/03/28 14:44:03;;;;;;;12.43;7.57;;;;;;;27.68;16.76;98924.41;5053198;28;20032;-71
2022/03/28 14:49:15;;;;;;;15.70;8.05;;;;;;;27.66;16.12;98910.81;5053576;28;20043;-71
2022/03/28 14:51:40;;;;;;;13.15;7.78;;;;;;;27.61;16.92;98916.50;5058483;28;20139;-69
2022/03/28 14:54:05;;;;;;;13.20;7.57;;;;;;;27.05;16.52;98903.81;5052318;28;20039;-70
2022/03/28 14:56:31;;;;;;;11.63;7.43;;;;;;;27.24;16.60;98900.94;5053974;28;20024;-69
2022/03/28 14:58:56;;;;;;;13.68;7.53;;;;;;;27.28;17.52;98905.56;5056668;28;20056;-70
2022/03/28 15:01:24;;;;;;;14.70;7.97;;;;;;;26.99;17.40;98896.72;5058221;28;20482;-70
2022/03/28 15:03:49;;;;;;;11.07;7.30;;;;;;;27.02;17.62;98887.78;5060017;28;20128;-70
2022/03/28 15:06:16;;;;;;;14.52;7.43;;;;;;;27.13;16.58;98891.97;5058320;28;20096;-71
2022/03/28 15:08:42;;;;;;;13.25;7.35;;;;;;;26.53;16.10;98889.31;5061294;28;20028;-71
2022/03/28 15:11:08;;;;;;;13.30;6.88;;;;;;;26.27;17.16;98875.06;5060965;28;20021;-71
2022/03/28 15:13:34;;;;;;;11.93;7.18;;;;;;;26.60;16.73;98878.63;5062812;28;20041;-70
2022/03/28 15:16:00;;;;;;;14.95;7.45;;;;;;;26.37;17.12;98878.47;5053795;28;20566;-72
2022/03/28 15:18:25;;;;;;;11.80;7.43;;;;;;;25.62;17.00;98870.28;5061100;28;20024;-72
2022/03/28 15:20:50;;;;;;;12.98;7.63;;;;;;;24.99;18.10;98854.81;5059587;28;20037;-70
2022/03/28 15:23:16;;;;;;;12.75;7.28;;;;;;;24.41;19.06;98855.75;5058740;28;20111;-77
2022/03/28 15:25:42;;;;;;;14.25;7.88;;;;;;;23.63;19.59;98872.19;5068151;28;20079;-77
2022/03/28 15:28:08;;;;;;;10.68;6.75;;;;;;;23.38;19.82;98839.22;5067287;28;20024;-75
2022/03/28 15:30:39;;;;;;;12.73;7.57;;;;;;;23.41;19.81;98860.72;5069152;28;20059;-76
2022/03/28 15:33:04;;;;;;;14.80;7.15;;;;;;;22.63;20.07;98842.06;5069887;28;20721;-75
2022/03/28 15:35:29;;;;;;;13.77;7.13;;;;;;;22.45;21.07;98858.13;5073322;28;20039;-73
2022/03/28 15:37:55;;;;;;;10.57;7.40;;;;;;;22.02;21.03;98859.53;5061150;28;20119;-76
2022/03/28 15:40:20;;;;;;;15.38;7.95;;;;;;;21.69;21.66;98847.97;5070739;28;20139;-77
2022/03/28 15:42:46;;;;;;;14.82;6.97;;;;;;;21.42;21.71;98838.03;5069010;28;20032;-77
2022/03/28 15:45:11;;;;;;;11.88;6.93;;;;;;;21.34;22.41;98823.97;5064426;28;20025;-77
2022/03/28 15:47:37;;;;;;;10.40;7.10;;;;;;;21.22;21.69;98833.31;5055101;28;20754;-75
2022/03/28 15:50:04;;;;;;;11.10;6.80;;;;;;;21.19;21.92;98833.03;5047666;28;20164;-71
2022/03/28 15:52:30;;;;;;;12.48;6.53;;;;;;;21.00;22.36;98816.22;5044910;28;20052;-72
2022/03/28 15:54:56;;;;;;;16.33;6.95;;;;;;;21.14;21.99;98844.88;5054707;28;20111;-76
2022/03/28 15:57:22;;;;;;;12.88;6.95;;;;;;;21.09;21.81;98844.84;5060792;28;20478;-76
2022/03/28 15:59:48;;;;;;;10.23;5.78;;;;;;;21.01;22.64;98826.94;5071610;28;20513;-73
2022/03/28 16:02:13;;;;;;;15.82;6.72;;;;;;;21.13;22.44;98836.88;5060147;28;20032;-73
2022/03/28 16:04:38;;;;;;;15.40;6.75;;;;;;;21.13;22.40;98823.94;5059411;28;20024;-75
2022/03/28 16:07:04;;;;;;;11.18;6.30;;;;;;;21.38;21.68;98830.63;5061623;28;20039;-75
2022/03/28 16:09:29;;;;;;;11.65;6.40;;;;;;;21.39;22.10;98826.78;5057153;28;20652;-75
2022/03/28 16:11:54;;;;;;;11.00;6.00;;;;;;;21.56;21.87;98826.50;5063324;28;20032;-75
2022/03/28 16:14:20;;;;;;;9.60;5.43;;;;;;;21.53;21.10;98821.53;5061478;28;20035;-75
2022/03/28 16:16:49;;;;;;;11.68;6.20;;;;;;;21.61;21.79;98802.56;5068861;28;20111;-75
2022/03/28 16:19:15;;;;;;;13.40;5.90;;;;;;;21.45;21.24;98820.97;5064116;28;20028;-75
2022/03/28 16:21:43;;;;;;;9.18;5.95;;;;;;;21.13;21.71;98828.63;5065104;28;20048;-75
2022/03/28 16:24:10;;;;;;;11.75;6.03;;;;;;;20.76;22.36;98804.88;5064242;28;20024;-75
2022/03/28 16:26:36;;;;;;;12.15;6.65;;;;;;;20.91;22.28;98821.41;5064607;28;20055;-75
2022/03/28 16:29:02;;;;;;;10.88;6.13;;;;;;;20.80;22.66;98819.72;5066302;28;20065;-75
2022/03/28 16:31:27;;;;;;;12.40;6.53;;;;;;;20.60;22.54;98811.41;5066278;28;20025;-75
2022/03/28 16:33:54;;;;;;;15.90;6.82;;;;;;;20.36;23.03;98776.94;5061939;28;20093;-75
2022/03/28 16:36:19;;;;;;;17.50;7.47;;;;;;;20.40;23.12;98793.69;5058830;28;20069;-74
2022/03/28 16:38:46;;;;;;;21.27;7.40;;;;;;;20.41;23.61;98811.00;5069267;28;20024;-74
2022/03/28 16:41:13;;;;;;;10.25;6.82;;;;;;;20.29;23.40;98811.22;5063404;28;20031;-75
2022/03/28 16:43:38;;;;;;;13.70;7.00;;;;;;;20.02;24.24;98795.69;5066590;28;20031;-75
2022/03/28 16:46:04;;;;;;;13.18;6.40;;;;;;;19.69;24.75;98772.13;5063348;28;20028;-75
2022/03/28 16:48:30;;;;;;;14.85;7.07;;;;;;;19.74;24.98;98807.84;5065754;28;20482;-75
2022/03/28 16:50:56;;;;;;;12.13;6.97;;;;;;;19.47;25.15;98774.97;5067402;28;20037;-75
2022/03/28 16:53:21;;;;;;;13.70;6.80;;;;;;;19.31;25.12;98778.66;5069470;28;20544;-75
2022/03/28 16:55:46;;;;;;;15.15;6.78;;;;;;;19.08;25.61;98768.88;5069025;28;20031;-76
2022/03/28 16:58:14;;;;;;;17.63;6.75;;;;;;;18.93;25.84;98786.78;5068633;28;20081;-75
2022/03/28 17:00:42;;;;;;;10.50;6.30;;;;;;;18.88;26.58;98808.69;5054734;28;20032;-76
2022/03/28 17:03:08;;;;;;;11.25;6.57;;;;;;;18.69;26.72;98804.59;5068986;28;20024;-76
2022/03/28 17:05:35;;;;;;;11.57;6.40;;;;;;;18.52;26.79;98799.19;5062865;28;20043;-73
2022/03/28 17:08:06;;;;;;;11.43;6.25;;;;;;;18.11;27.74;98772.09;5066260;28;20025;-73
2022/03/28 17:10:31;;;;;;;12.13;5.90;;;;;;;18.06;27.76;98795.84;5063202;28;20035;-74
2022/03/28 17:13:00;;;;;;;13.32;6.63;;;;;;;17.85;28.26;98787.34;5064668;28;20032;-76
2022/03/28 17:15:27;;;;;;;13.77;7.78;;;;;;;17.59;28.43;98777.88;5056360;28;20032;-76
2022/03/28 17:17:53;;;;;;;15.50;7.45;;;;;;;17.36;29.12;98767.94;5062972;28;20032;-76
2022/03/28 17:20:18;;;;;;;12.85;6.13;;;;;;;17.04;29.38;98754.00;5062520;28;20052;-75
2022/03/28 17:22:44;;;;;;;11.32;5.85;;;;;;;16.93;29.62;98771.28;5065980;28;20056;-74
2022/03/28 17:25:11;;;;;;;11.95;6.10;;;;;;;16.76;29.84;98776.69;5067181;28;20036;-75
2022/03/28 17:27:36;;;;;;;11.13;6.30;;;;;;;16.55;30.53;98784.47;5069594;28;20028;-75
2022/03/28 17:30:05;;;;;;;14.65;5.45;;;;;;;16.36;30.16;98756.50;5067217;28;20020;-75
2022/03/28 17:32:30;;;;;;;12.80;5.95;;;;;;;16.28;30.71;98778.72;5065608;28;20020;-74
2022/03/28 17:34:55;;;;;;;14.18;5.57;;;;;;;16.10;30.68;98763.34;5067145;28;20040;-74
2022/03/28 17:37:21;;;;;;;9.15;5.32;;;;;;;15.93;30.90;98766.00;5067688;28;20028;-75
2022/03/28 17:39:50;;;;;;;12.63;5.03;;;;;;;15.81;31.00;98773.34;5047426;28;22949;-73
2022/03/28 17:42:17;;;;;;;16.63;5.90;;;;;;;15.65;31.57;98774.03;5055865;28;20032;-75
2022/03/28 17:44:43;;;;;;;17.48;6.57;;;;;;;15.36;32.13;98754.81;5057568;28;20130;-75
2022/03/28 17:47:08;;;;;;;11.45;5.80;;;;;;;15.45;32.29;98774.38;5056176;28;20165;-75
2022/03/28 17:49:34;;;;;;;11.15;5.32;;;;;;;15.39;32.19;98770.69;5062884;28;20072;-73
2022/03/28 17:51:59;;;;;;;16.15;5.53;;;;;;;15.29;32.29;98775.88;5049174;28;20024;-70
2022/03/28 17:54:24;;;;;;;14.18;5.20;;;;;;;15.14;32.56;98773.59;5058498;28;20024;-72
2022/03/28 17:56:50;;;;;;;11.85;5.18;;;;;;;15.16;32.25;98766.03;5056897;28;20032;-70
2022/03/28 17:59:15;;;;;;;8.85;5.05;;;;;;;15.25;32.59;98777.44;5056837;28;20127;-70
2022/03/28 18:05:03;;;;;;;12.85;6.00;;;;;;;15.30;33.44;98763.91;5063162;28;20141;-70
2022/03/28 18:07:29;;;;;;;14.23;6.15;;;;;;;15.09;33.63;98749.81;5066134;28;20053;-70
2022/03/28 18:09:54;;;;;;;15.52;6.53;;;;;;;14.91;34.49;98763.50;5061721;28;20075;-70
2022/03/28 18:12:19;;;;;;;13.30;6.25;;;;;;;14.67;34.73;98771.59;5065746;28;20039;-70
2022/03/28 18:14:47;;;;;;;12.65;5.88;;;;;;;14.72;34.42;98753.69;5064011;28;20086;-70
2022/03/28 18:17:12;;;;;;;12.85;6.93;;;;;;;14.66;34.83;98764.47;5066214;28;20028;-70
2022/03/28 18:19:39;;;;;;;14.27;6.75;;;;;;;14.39;35.69;98738.63;5063011;28;20027;-69
2022/03/28 18:22:06;;;;;;;17.63;7.07;;;;;;;14.36;35.70;98772.59;5060889;28;20074;-69
2022/03/28 18:24:32;;;;;;;13.07;6.93;;;;;;;14.09;36.05;98774.78;5067830;28;20025;-69
2022/03/28 18:26:58;;;;;;;18.92;6.20;;;;;;;13.89;36.64;98774.19;5059928;28;20397;-68
2022/03/28 18:29:24;;;;;;;13.57;6.53;;;;;;;13.75;36.54;98774.34;5062310;28;20075;-69
2022/03/28 18:31:49;;;;;;;17.23;7.50;;;;;;;13.70;37.27;98773.31;5064797;28;20060;-68
2022/03/28 18:34:15;;;;;;;20.42;8.10;;;;;;;13.54;38.04;98777.44;5060945;28;20163;-68
2022/03/28 18:36:40;;;;;;;22.95;7.63;;;;;;;13.40;38.64;98771.28;5063704;28;20024;-69
2022/03/28 18:39:06;;;;;;;22.30;7.72;;;;;;;13.25;38.92;98771.59;5059768;28;20389;-69
2022/03/28 18:41:32;;;;;;;17.85;7.80;;;;;;;13.14;39.29;98780.47;5061852;28;20032;-69
2022/03/28 18:43:58;;;;;;;13.80;7.70;;;;;;;12.92;39.85;98771.84;5053612;28;20044;-69
2022/03/28 18:46:23;;;;;;;16.80;8.20;;;;;;;12.77;40.20;98779.47;5059272;28;20574;-70
2022/03/28 18:48:49;;;;;;;15.93;7.90;;;;;;;12.63;40.77;98770.56;5060597;28;20029;-69
2022/03/28 18:51:16;;;;;;;18.70;8.27;;;;;;;12.50;41.11;98769.59;5071757;28;20040;-69
2022/03/28 18:53:42;;;;;;;20.27;7.18;;;;;;;12.42;41.28;98780.69;5068554;28;20032;-69
2022/03/28 18:56:09;;;;;;;24.85;7.38;;;;;;;12.32;40.86;98771.34;5065813;28;20561;-69
2022/03/28 18:58:34;;;;;;;16.30;7.00;;;;;;;12.21;41.08;98775.56;5071725;28;20657;-70
2022/03/28 19:01:02;;;;;;;20.15;6.85;;;;;;;12.10;41.52;98768.91;5062419;28;20025;-69
2022/03/28 19:03:27;;;;;;;16.17;7.85;;;;;;;12.10;41.12;98778.94;5065436;28;20028;-70
2022/03/28 19:05:53;;;;;;;14.70;6.68;;;;;;;11.97;41.15;98775.25;5071661;28;20039;-69
2022/03/28 19:08:18;;;;;;;12.05;5.95;;;;;;;11.88;41.17;98771.06;5060437;28;20032;-69
2022/03/28 19:10:44;;;;;;;19.90;6.13;;;;;;;11.73;41.73;98775.88;5067631;28;20040;-69
2022/03/28 19:13:09;;;;;;;16.88;6.15;;;;;;;11.54;41.73;98759.44;5077717;28;20028;-69
2022/03/28 19:15:35;;;;;;;16.52;6.18;;;;;;;11.54;41.93;98767.56;5073228;28;20028;-70
2022/03/28 19:18:00;;;;;;;11.77;5.03;;;;;;;11.51;41.99;98770.69;5071954;28;20135;-70
2022/03/28 19:20:25;;;;;;;12.50;5.47;;;;;;;11.36;42.09;98770.09;5075209;28;20213;-70
2022/03/28 19:22:51;;;;;;;16.88;5.85;;;;;;;11.24;42.67;98761.78;5076790;28;20020;-70
2022/03/28 19:25:16;;;;;;;17.17;6.07;;;;;;;11.10;42.80;98746.53;5083238;28;20811;-70
2022/03/28 19:27:42;;;;;;;17.50;6.18;;;;;;;11.18;42.87;98763.41;5068887;28;20028;-70
2022/03/28 19:30:09;;;;;;;13.90;5.85;;;;;;;11.14;43.40;98758.63;5078658;28;20036;-70
2022/03/28 19:32:35;;;;;;;15.15;7.03;;;;;;;11.10;43.57;98752.78;5070665;28;20035;-69
2022/03/28 19:35:03;;;;;;;22.80;9.23;;;;;;;11.08;44.05;98754.91;5076467;28;20374;-70
2022/03/28 19:37:29;;;;;;;17.38;7.32;;;;;;;10.90;44.52;98752.78;5067754;28;20130;-70
2022/03/28 19:39:55;;;;;;;20.42;7.97;;;;;;;10.97;45.17;98758.19;5065446;28;20759;-70
2022/03/28 19:42:20;;;;;;;14.05;7.63;;;;;;;10.79;45.32;98742.56;5051454;28;20039;-69
2022/03/28 19:44:45;;;;;;;19.30;7.80;;;;;;;10.82;46.25;98746.72;5055461;28;20170;-69
2022/03/28 19:47:11;;;;;;;18.70;7.75;;;;;;;10.81;46.52;98740.50;5056592;28;20035;-70
2022/03/28 19:49:37;;;;;;;14.63;7.18;;;;;;;10.73;47.35;98752.34;5059181;28;20028;-70
2022/03/28 19:52:04;;;;;;;18.77;9.05;;;;;;;10.62;48.10;98752.13;5059714;28;20028;-70
2022/03/28 19:54:31;;;;;;;18.95;8.93;;;;;;;10.59;48.05;98750.66;5062219;28;20039;-70
2022/03/28 19:56:58;;;;;;;14.77;8.05;;;;;;;10.57;48.22;98727.56;5061592;28;20052;-70
2022/03/28 19:59:24;;;;;;;15.30;8.00;;;;;;;10.57;48.35;98724.84;5058759;28;20028;-69
2022/03/28 20:01:50;;;;;;;14.80;9.13;;;;;;;10.55;48.79;98749.38;5057480;28;20036;-70
2022/03/28 20:04:15;;;;;;;23.17;9.35;;;;;;;10.57;48.58;98751.91;5056949;28;20039;-70
2022/03/28 20:06:42;;;;;;;18.70;8.50;;;;;;;10.25;49.33;98721.81;5057831;28;20809;-70
2022/03/28 20:09:07;;;;;;;18.08;8.35;;;;;;;10.24;49.63;98747.19;5060482;28;20039;-69
2022/03/28 20:11:34;;;;;;;19.77;7.40;;;;;;;10.15;50.03;98748.41;5059392;28;20402;-70
2022/03/28 20:14:01;;;;;;;19.40;9.55;;;;;;;10.09;49.81;98744.66;5063408;28;20032;-70
2022/03/28 20:16:26;;;;;;;17.35;8.80;;;;;;;9.71;49.78;98680.22;5062465;28;20135;-69
2022/03/28 20:18:52;;;;;;;22.38;9.60;;;;;;;9.82;49.78;98722.91;5061216;28;20115;-70
2022/03/28 20:21:18;;;;;;;21.75;10.55;;;;;;;9.86;50.38;98736.84;5061942;28;20101;-70
2022/03/28 20:23:44;;;;;;;19.90;9.10;;;;;;;9.77;50.89;98736.19;5055761;28;20077;-70
2022/03/28 20:26:09;;;;;;;21.50;9.13;;;;;;;9.64;51.26;98744.19;5065319;28;20036;-70
2022/03/28 20:28:35;;;;;;;14.38;7.88;;;;;;;9.60;51.45;98746.47;5059918;28;20036;-70
2022/03/28 20:31:02;;;;;;;19.00;7.80;;;;;;;9.52;51.59;98743.94;5061976;28;20032;-70
2022/03/28 20:33:28;;;;;;;14.63;7.30;;;;;;;9.35;51.77;98738.00;5055623;28;20059;-70
2022/03/28 20:35:54;;;;;;;14.23;8.45;;;;;;;9.17;52.85;98730.41;5055561;28;20485;-70
2022/03/28 20:38:19;;;;;;;16.60;8.48;;;;;;;9.04;52.59;98713.25;5059314;28;20090;-70
2022/03/28 20:40:45;;;;;;;13.43;7.38;;;;;;;9.12;52.58;98743.66;5058205;28;20065;-70
2022/03/28 20:43:10;;;;;;;16.75;8.77;;;;;;;8.94;53.13;98740.59;5055949;28;20452;-70
2022/03/28 20:45:35;;;;;;;18.55;8.68;;;;;;;8.77;53.29;98740.00;5058430;28;20044;-70
2022/03/28 20:48:01;;;;;;;20.92;8.90;;;;;;;8.69;53.29;98734.75;5056729;28;20040;-70
2022/03/28 20:50:27;;;;;;;16.10;8.77;;;;;;;8.44;54.04;98701.94;5054769;28;20025;-70
2022/03/28 20:52:52;;;;;;;20.00;10.13;;;;;;;8.55;54.11;98734.63;5054801;28;20096;-70
2022/03/28 20:55:17;;;;;;;19.02;8.50;;;;;;;8.48;54.98;98704.03;5054590;28;20097;-70
2022/03/28 20:57:43;;;;;;;15.73;8.73;;;;;;;8.58;54.52;98730.69;5048779;28;20043;-70
2022/03/28 21:00:09;;;;;;;20.30;9.07;;;;;;;8.64;54.88;98719.13;5054016;28;20036;-69
2022/03/28 21:02:34;;;;;;;18.15;8.88;;;;;;;8.59;54.59;98709.97;5049359;28;20041;-69